createdAt,value
2022-12-23T00:03:01.784Z,5.22
2022-12-23T00:08:08.409Z,5.25
2022-12-23T00:13:33.239Z,5.27
2022-12-23T00:18:39.884Z,5.27
2022-12-23T00:23:49.750Z,5.29
2022-12-23T00:28:58.818Z,5.32
2022-12-23T00:34:04.535Z,5.32
2022-12-23T00:39:31.999Z,5.33
2022-12-23T00:44:37.862Z,5.34
2022-12-23T01:01:00.320Z,5.42
2022-12-23T01:06:06.613Z,5.46
2022-12-23T01:11:13.306Z,5.46
2022-12-23T01:16:19.178Z,5.45
2022-12-23T01:21:25.105Z,5.47
2022-12-23T01:26:30.925Z,5.50
2022-12-23T01:31:36.840Z,5.49
2022-12-23T01:36:42.542Z,5.47
2022-12-23T01:42:07.201Z,5.49
2022-12-23T01:47:16.655Z,5.50
2022-12-23T01:52:23.036Z,5.51
2022-12-23T01:57:29.492Z,5.50
2022-12-23T02:02:57.283Z,5.54
2022-12-23T02:08:22.086Z,5.56
2022-12-23T02:13:36.207Z,5.56
2022-12-23T02:19:01.530Z,5.58
2022-12-23T02:24:38.130Z,5.62
2022-12-23T02:30:26.939Z,5.64
2022-12-23T02:35:40.827Z,5.62
2022-12-23T02:40:57.201Z,5.65
2022-12-23T02:46:12.404Z,5.68
2022-12-23T02:51:21.633Z,5.70
2022-12-23T02:56:30.921Z,5.70
2022-12-23T03:01:38.361Z,5.70
2022-12-23T03:06:48.433Z,5.73
2022-12-23T03:12:03.695Z,5.75
2022-12-23T03:17:25.741Z,5.76
2022-12-23T03:22:37.690Z,5.75
2022-12-23T03:27:52.733Z,5.79
2022-12-23T03:33:03.487Z,5.79
2022-12-23T03:38:13.632Z,5.79
2022-12-23T03:43:24.878Z,5.80
2022-12-23T03:48:32.301Z,5.86
2022-12-23T03:53:43.740Z,5.87
2022-12-23T03:58:56.304Z,5.83
2022-12-23T04:04:07.103Z,5.84
2022-12-23T04:09:19.820Z,5.88
2022-12-23T04:14:27.611Z,5.90
2022-12-23T04:19:33.416Z,5.86
2022-12-23T04:24:50.811Z,5.84
2022-12-23T04:29:56.518Z,5.83
2022-12-23T04:35:02.530Z,5.74
2022-12-23T04:40:09.966Z,5.62
2022-12-23T04:45:15.875Z,5.56
2022-12-23T04:50:21.577Z,5.46
2022-12-23T04:55:27.272Z,5.36
2022-12-23T05:00:39.171Z,5.28
2022-12-23T05:05:46.033Z,5.25
2022-12-23T05:10:52.065Z,5.15
2022-12-23T05:15:57.854Z,5.01
2022-12-23T05:21:03.789Z,4.90
2022-12-23T05:26:09.743Z,4.86
2022-12-23T05:31:17.072Z,4.86
2022-12-23T05:36:23.029Z,4.84
2022-12-23T05:41:29.018Z,4.87
2022-12-23T05:46:34.768Z,4.92
2022-12-23T05:51:40.583Z,4.88
2022-12-23T05:56:46.325Z,4.84
2022-12-23T06:01:52.410Z,4.84
2022-12-23T06:06:58.637Z,4.86
2022-12-23T06:12:04.506Z,4.90
2022-12-23T06:17:10.493Z,4.91
2022-12-23T06:22:17.938Z,4.93
2022-12-23T06:27:23.656Z,4.94
2022-12-23T06:32:34.445Z,4.95
2022-12-23T06:37:44.649Z,4.95
2022-12-23T06:42:50.416Z,4.97
2022-12-23T06:47:56.055Z,5.00
2022-12-23T06:53:02.092Z,5.04
2022-12-23T06:58:07.908Z,5.09
2022-12-23T07:03:13.987Z,5.13
2022-12-23T07:08:21.157Z,5.17
2022-12-23T07:13:27.369Z,5.23
2022-12-23T07:18:33.360Z,5.31
2022-12-23T07:23:39.043Z,5.36
2022-12-23T07:28:49.111Z,5.44
2022-12-23T07:33:54.985Z,5.61
2022-12-23T07:39:00.701Z,5.73
2022-12-23T07:44:06.514Z,5.85
2022-12-23T07:49:12.428Z,5.90
2022-12-23T07:54:18.489Z,5.91
2022-12-23T07:59:27.396Z,5.91
2022-12-23T08:04:33.134Z,5.91
2022-12-23T08:09:39.010Z,5.89
2022-12-23T08:14:45.645Z,5.88
2022-12-23T08:19:51.467Z,5.84
2022-12-23T08:24:57.225Z,5.84
2022-12-23T08:30:03.241Z,5.84
2022-12-23T08:35:10.132Z,5.89
2022-12-23T08:40:15.856Z,6.02
2022-12-23T08:45:21.723Z,6.14
2022-12-23T08:50:27.490Z,6.25
2022-12-23T08:55:39.305Z,6.36
2022-12-23T09:00:45.242Z,6.45
2022-12-23T09:05:52.118Z,6.51
2022-12-23T09:10:57.929Z,6.55
2022-12-23T09:16:04.413Z,6.57
2022-12-23T09:21:14.076Z,6.63
2022-12-23T09:26:21.764Z,6.66
2022-12-23T09:31:35.872Z,6.69
2022-12-23T09:36:43.324Z,6.74
2022-12-23T09:42:01.642Z,6.69
2022-12-23T09:47:13.256Z,6.61
2022-12-23T09:52:22.365Z,6.57
2022-12-23T09:57:36.337Z,6.53
2022-12-23T10:02:54.167Z,6.47
2022-12-23T10:08:07.258Z,6.45
2022-12-23T10:13:29.758Z,6.46
2022-12-23T10:18:47.217Z,6.41
2022-12-23T10:23:54.844Z,6.38
2022-12-23T10:29:18.489Z,6.35
2022-12-23T10:34:38.439Z,6.30
2022-12-23T10:39:51.994Z,6.19
2022-12-23T10:45:10.382Z,6.18
2022-12-23T10:50:34.654Z,6.14
2022-12-23T10:55:40.788Z,6.07
2022-12-23T11:00:52.090Z,6.01
2022-12-23T11:05:58.702Z,5.94
2022-12-23T11:11:05.103Z,5.88
2022-12-23T11:16:21.749Z,5.90
2022-12-23T11:21:29.195Z,5.93
2022-12-23T11:26:35.624Z,5.90
2022-12-23T11:31:44.306Z,5.84
2022-12-23T11:37:01.830Z,5.82
2022-12-23T11:42:20.423Z,5.74
2022-12-23T11:47:33.336Z,5.66
2022-12-23T11:52:52.817Z,5.58
2022-12-23T11:57:59.630Z,5.54
2022-12-23T12:03:07.481Z,5.52
2022-12-23T12:08:21.262Z,5.52
2022-12-23T12:13:30.934Z,5.47
2022-12-23T12:18:38.528Z,5.41
2022-12-23T12:23:48.189Z,5.40
2022-12-23T12:29:00.760Z,5.41
2022-12-23T12:34:17.617Z,5.40
2022-12-23T12:39:29.127Z,5.38
2022-12-23T12:44:43.497Z,5.37
2022-12-23T12:49:54.567Z,5.35
2022-12-23T12:55:05.054Z,5.28
2022-12-23T13:00:18.263Z,5.25
2022-12-23T13:05:53.308Z,5.22
2022-12-23T13:11:06.168Z,5.21
2022-12-23T13:16:22.506Z,5.16
2022-12-23T13:21:38.027Z,5.19
2022-12-23T13:26:55.296Z,5.17
2022-12-23T13:32:14.894Z,5.15
2022-12-23T13:37:30.217Z,5.15
2022-12-23T13:42:40.535Z,5.16
2022-12-23T13:47:58.499Z,5.15
2022-12-23T13:53:22.641Z,5.16
2022-12-23T13:58:33.780Z,5.21
2022-12-23T14:03:40.674Z,5.25
2022-12-23T14:08:48.245Z,5.26
2022-12-23T14:14:00.274Z,5.28
2022-12-23T14:19:26.704Z,5.36
2022-12-23T14:24:52.954Z,5.42
2022-12-23T14:30:10.506Z,5.44
2022-12-23T14:35:56.895Z,5.48
2022-12-23T14:41:36.988Z,5.55
2022-12-23T14:46:59.483Z,5.56
2022-12-23T14:52:46.283Z,5.57
2022-12-23T14:58:05.775Z,5.63
2022-12-23T15:03:12.300Z,5.69
2022-12-23T15:08:30.252Z,5.71
2022-12-23T15:13:37.241Z,5.73
2022-12-23T15:18:55.501Z,5.80
2022-12-23T15:24:01.251Z,5.88
2022-12-23T15:29:09.293Z,5.91
2022-12-23T15:34:22.221Z,5.94
2022-12-23T15:39:34.280Z,6.04
2022-12-23T15:44:41.116Z,6.10
2022-12-23T15:49:47.617Z,6.11
2022-12-23T15:55:02.160Z,6.14
2022-12-23T16:00:21.986Z,6.19
2022-12-23T16:05:30.473Z,6.25
2022-12-23T16:10:36.630Z,6.27
2022-12-23T16:15:42.440Z,6.30
2022-12-23T16:21:24.335Z,6.37
2022-12-23T16:26:30.381Z,6.38
2022-12-23T16:31:39.716Z,6.40
2022-12-23T16:36:49.189Z,6.44
2022-12-23T16:41:55.264Z,6.47
2022-12-23T16:47:08.351Z,6.49
2022-12-23T16:52:14.989Z,6.51
2022-12-23T16:57:21.176Z,6.53
2022-12-23T17:02:28.748Z,6.55
2022-12-23T17:07:38.717Z,6.56
2022-12-23T17:12:49.432Z,6.59
2022-12-23T17:17:56.336Z,6.61
2022-12-23T17:23:02.108Z,6.62
2022-12-23T17:28:11.835Z,6.65
2022-12-23T17:33:20.364Z,6.65
2022-12-23T17:38:29.035Z,6.66
2022-12-23T17:43:35.031Z,6.68
2022-12-23T17:48:41.334Z,6.67
2022-12-23T17:53:53.340Z,6.65
2022-12-23T17:59:03.247Z,6.68
2022-12-23T18:04:09.052Z,6.65
2022-12-23T18:09:14.867Z,6.60
2022-12-23T18:14:29.232Z,6.53
2022-12-23T18:19:35.044Z,6.47
2022-12-23T18:24:40.960Z,6.36
2022-12-23T18:29:48.501Z,6.31
2022-12-23T18:34:55.477Z,6.27
2022-12-23T18:40:01.371Z,6.22
2022-12-23T18:45:23.796Z,6.21
2022-12-23T18:50:30.297Z,6.15
2022-12-23T18:55:36.322Z,6.08
2022-12-23T19:00:42.383Z,6.03
2022-12-23T19:05:50.005Z,5.98
2022-12-23T19:10:56.992Z,5.90
2022-12-23T19:16:02.850Z,5.82
2022-12-23T19:21:09.498Z,5.80
2022-12-23T19:26:16.147Z,5.77
2022-12-23T19:31:23.361Z,5.71
2022-12-23T19:36:29.670Z,5.67
2022-12-23T19:41:35.351Z,5.66
2022-12-23T19:46:41.358Z,5.63
2022-12-23T19:51:47.311Z,5.57
2022-12-23T19:56:53.137Z,5.55
2022-12-23T20:01:58.984Z,5.55
2022-12-23T20:07:04.640Z,5.51
2022-12-23T20:12:10.791Z,5.52
2022-12-23T20:17:16.566Z,5.53
2022-12-23T20:22:22.295Z,5.61
2022-12-23T20:27:28.494Z,5.56
2022-12-23T20:32:34.743Z,5.50
2022-12-23T20:37:40.662Z,5.49
2022-12-23T20:42:46.556Z,5.45
2022-12-23T20:47:54.191Z,5.42
2022-12-23T20:52:59.807Z,5.39
2022-12-23T20:58:24.828Z,5.39
2022-12-23T21:03:30.548Z,5.39
2022-12-23T21:08:38.232Z,5.42
2022-12-23T21:13:46.612Z,5.38
2022-12-23T21:18:53.335Z,5.32
2022-12-23T21:24:02.252Z,5.34
2022-12-23T21:29:10.664Z,5.37
2022-12-23T21:34:18.136Z,5.32
2022-12-23T21:39:24.025Z,5.29
2022-12-23T21:44:29.909Z,5.31
2022-12-23T21:49:35.852Z,5.30
2022-12-23T21:54:41.668Z,5.29
2022-12-23T21:59:47.501Z,5.26
2022-12-23T22:04:53.363Z,5.28
2022-12-23T22:09:59.183Z,5.30
2022-12-23T22:15:11.345Z,5.26
2022-12-23T22:20:17.709Z,5.22
2022-12-23T22:25:23.515Z,5.18
2022-12-23T22:30:29.825Z,5.22
2022-12-23T22:35:35.606Z,5.24
2022-12-23T22:40:41.474Z,5.22
2022-12-23T22:45:47.355Z,5.21
2022-12-23T22:51:00.725Z,5.22
2022-12-23T22:56:08.130Z,5.17
2022-12-23T23:01:22.448Z,5.11
2022-12-23T23:06:31.115Z,5.14
2022-12-23T23:11:37.372Z,5.09
2022-12-23T23:16:43.474Z,5.11
2022-12-23T23:21:49.282Z,5.04
2022-12-23T23:26:55.207Z,4.93
2022-12-23T23:32:01.781Z,4.87
2022-12-23T23:37:07.884Z,4.85
2022-12-23T23:42:16.921Z,4.81
2022-12-23T23:47:22.937Z,4.82
2022-12-23T23:52:29.194Z,4.79
2022-12-23T23:57:34.856Z,4.73
